Terminal Aerodrome Forecast
Issued by NWS Charleston, WV

Current Version | Previous Version | Graphics & Text | Print | Product List | Glossary On
Versions: 1 2 3 4 5 6 7 8 9 10 11 12 13 14 15 16 17 18 19 20 21 22 23 24 25 26 27
000
FTUS41 KRLX 160100 AAB
TAFEKN
TAF AMD
KEKN 160105Z 1601/1624 31012G22KT P6SM -SN OVC035
     FM160300 32008KT P6SM BKN035
     FM160800 34005KT P6SM BKN035
     FM161000 00000KT P6SM BKN035
     FM161400 00000KT P6SM SKC
     FM161900 03005KT P6SM SKC=

USA.gov is the U.S. government's official web portal to all federal, state and local government web resources and services.